Time;durP1;ratioP1;P1;durP2;ratioP2;P2;SDS_P1;SDS_P2;PMS_P1;PMS_P2;Temp;Humidity;BMP_temperature;BMP_pressure;BME280_temperature;BME280_humidity;BME280_pressure;Samples;Min_cycle;Max_cycle;Signal;HPM_P1;HPM_P2
2023/02/10 00:01:47;;;;;;;8.98;4.65;;;7.10;57.70;;;;;;20920272;28;20063;-63
2023/02/10 00:11:58;;;;;;;9.93;4.82;;;6.90;57.90;;;;;;20919886;28;20110;-68
2023/02/10 00:22:10;;;;;;;11.77;6.00;;;6.90;58.00;;;;;;20918457;28;20044;-65
2023/02/10 00:32:21;;;;;;;10.05;5.55;;;6.90;58.30;;;;;;20918266;28;20413;-69
2023/02/10 00:42:42;;;;;;;8.30;5.07;;;7.00;58.20;;;;;;20916964;28;20056;-65
2023/02/10 00:53:03;;;;;;;10.15;5.45;;;7.10;57.80;;;;;;20916194;28;20126;-62
2023/02/10 01:03:16;;;;;;;9.40;5.38;;;7.00;57.30;;;;;;20915841;28;20489;-66
2023/02/10 01:13:20;;;;;;;10.57;5.15;;;7.00;57.50;;;;;;20916009;28;20147;-61
2023/02/10 01:23:24;;;;;;;8.98;5.57;;;7.20;57.20;;;;;;20914120;28;20053;-66
2023/02/10 01:33:26;;;;;;;6.38;4.32;;;7.60;57.40;;;;;;20913064;28;20136;-65
2023/02/10 01:43:29;;;;;;;7.72;4.85;;;7.70;58.70;;;;;;20912793;28;20171;-67
2023/02/10 01:53:31;;;;;;;7.35;4.00;;;7.80;59.10;;;;;;20928812;28;20102;-68
2023/02/10 02:03:34;;;;;;;9.63;3.78;;;7.80;59.30;;;;;;20929847;28;20128;-69
2023/02/10 02:14:00;;;;;;;11.15;4.05;;;7.80;60.10;;;;;;20929300;28;20048;-59
2023/02/10 02:24:09;;;;;;;8.23;4.25;;;7.80;60.80;;;;;;20929126;28;20045;-60
2023/02/10 02:34:18;;;;;;;5.85;3.50;;;7.70;61.30;;;;;;20924781;28;20049;-63
2023/02/10 02:44:21;;;;;;;7.70;3.97;;;7.70;61.30;;;;;;20927462;28;20466;-63
2023/02/10 02:54:45;;;;;;;8.85;3.80;;;7.70;61.70;;;;;;20924995;28;20087;-56
2023/02/10 03:04:48;;;;;;;8.68;3.95;;;7.70;61.90;;;;;;20924717;28;20123;-68
2023/02/10 03:14:51;;;;;;;5.60;3.38;;;7.80;57.90;;;;;;20924527;28;20049;-68
2023/02/10 03:24:54;;;;;;;9.80;3.97;;;7.60;55.50;;;;;;20922515;28;20052;-65
2023/02/10 03:34:59;;;;;;;5.38;3.60;;;7.40;55.60;;;;;;20922910;28;20045;-60
2023/02/10 03:45:05;;;;;;;7.70;3.70;;;7.40;55.60;;;;;;20927864;28;20049;-55
2023/02/10 03:55:09;;;;;;;5.68;3.28;;;7.30;56.40;;;;;;20922999;28;20057;-58
2023/02/10 04:05:11;;;;;;;7.70;4.00;;;7.30;56.00;;;;;;20925831;28;20128;-59
2023/02/10 04:15:13;;;;;;;8.48;4.10;;;7.30;56.80;;;;;;20921504;28;20382;-63
2023/02/10 04:25:16;;;;;;;7.30;4.60;;;7.30;57.50;;;;;;20918422;28;20049;-64
2023/02/10 04:35:18;;;;;;;9.77;5.20;;;7.30;58.60;;;;;;20918669;28;20080;-61
2023/02/10 04:45:21;;;;;;;10.18;4.50;;;7.20;58.10;;;;;;20917372;28;20045;-66
2023/02/10 04:55:23;;;;;;;7.03;3.67;;;7.20;57.20;;;;;;20923604;28;20064;-57
2023/02/10 05:05:25;;;;;;;11.25;4.60;;;7.10;57.80;;;;;;20916185;28;20045;-68
2023/02/10 05:15:26;;;;;;;7.38;4.57;;;6.90;58.60;;;;;;20916590;28;20056;-67
2023/02/10 05:25:28;;;;;;;8.05;4.40;;;6.80;58.50;;;;;;20914652;28;20460;-66
2023/02/10 05:35:30;;;;;;;7.15;3.95;;;6.80;58.70;;;;;;20912998;28;20052;-60
2023/02/10 05:45:32;;;;;;;8.13;3.90;;;6.70;58.90;;;;;;20933840;28;20053;-66
2023/02/10 05:55:34;;;;;;;6.72;4.00;;;6.60;59.00;;;;;;20937679;28;20190;-61
2023/02/10 06:05:36;;;;;;;8.07;4.22;;;6.60;59.20;;;;;;20913052;28;20067;-57
2023/02/10 06:15:37;;;;;;;6.13;3.83;;;6.60;59.60;;;;;;20911560;28;20107;-56
2023/02/10 06:25:39;;;;;;;8.63;4.97;;;6.60;59.50;;;;;;20910689;28;20077;-58
2023/02/10 06:35:41;;;;;;;10.85;5.30;;;6.60;59.50;;;;;;20916381;28;20107;-57
2023/02/10 06:45:43;;;;;;;12.88;5.45;;;6.60;59.40;;;;;;20924237;28;20053;-68
2023/02/10 06:55:44;;;;;;;11.00;5.05;;;6.60;59.50;;;;;;20925266;28;20057;-68
2023/02/10 07:05:46;;;;;;;7.80;4.90;;;6.50;59.30;;;;;;20924305;28;20045;-65
2023/02/10 07:15:48;;;;;;;9.93;5.13;;;6.50;58.60;;;;;;20922199;28;20211;-57
2023/02/10 07:25:51;;;;;;;9.30;5.53;;;6.40;58.60;;;;;;20921421;28;20136;-68
2023/02/10 07:35:52;;;;;;;12.13;6.38;;;6.40;59.20;;;;;;20922143;28;20044;-68
2023/02/10 07:45:54;;;;;;;10.30;6.13;;;6.20;60.70;;;;;;20921903;28;20098;-56
2023/02/10 07:55:59;;;;;;;11.40;6.32;;;6.30;60.30;;;;;;20919686;28;20051;-65
2023/02/10 08:06:02;;;;;;;18.80;7.97;;;6.50;59.70;;;;;;20920271;28;20113;-57
2023/02/10 08:16:05;;;;;;;10.45;6.38;;;6.50;60.60;;;;;;20919207;28;20048;-68
2023/02/10 08:26:11;;;;;;;14.05;7.90;;;6.40;60.90;;;;;;20916195;28;20049;-65
2023/02/10 08:36:15;;;;;;;13.95;6.82;;;6.30;60.40;;;;;;20916878;28;20151;-64
2023/02/10 08:46:19;;;;;;;10.32;5.78;;;6.40;60.20;;;;;;20916773;28;20489;-59
2023/02/10 08:56:21;;;;;;;10.32;5.28;;;6.90;58.10;;;;;;20917328;28;20409;-66
2023/02/10 09:06:31;;;;;;;10.40;5.40;;;7.20;57.00;;;;;;20915774;28;20041;-65
2023/02/10 09:16:33;;;;;;;10.70;5.45;;;7.40;56.40;;;;;;20913181;28;20049;-55
2023/02/10 09:26:35;;;;;;;9.57;6.10;;;7.40;55.70;;;;;;20913978;28;20041;-65
2023/02/10 09:36:37;;;;;;;8.85;5.40;;;7.40;56.00;;;;;;20912545;28;20132;-69
2023/02/10 09:46:58;;;;;;;10.70;6.45;;;7.60;56.50;;;;;;20912422;28;20144;-65
2023/02/10 09:57:05;;;;;;;13.88;6.22;;;7.70;56.40;;;;;;20934835;28;20105;-55
2023/02/10 10:07:29;;;;;;;14.88;5.97;;;7.80;56.30;;;;;;20924759;28;20230;-61
2023/02/10 10:17:56;;;;;;;7.33;5.33;;;8.10;55.50;;;;;;20926889;28;20049;-58
2023/02/10 10:28:03;;;;;;;9.18;5.47;;;8.20;58.60;;;;;;20925995;28;20052;-65
2023/02/10 10:38:28;;;;;;;8.45;5.28;;;8.90;54.50;;;;;;20926406;28;20048;-65
2023/02/10 10:48:31;;;;;;;8.02;3.65;;;9.80;52.60;;;;;;20925598;28;20480;-58
2023/02/10 10:58:41;;;;;;;6.10;4.10;;;10.60;59.20;;;;;;20924853;28;20045;-66
2023/02/10 11:08:45;;;;;;;6.38;3.83;;;11.20;45.60;;;;;;20922519;28;20060;-62
2023/02/10 11:18:59;;;;;;;9.57;4.13;;;10.60;46.10;;;;;;20922713;28;20049;-55
2023/02/10 11:29:10;;;;;;;7.88;3.78;;;10.60;47.10;;;;;;20921595;28;20511;-63
2023/02/10 11:39:22;;;;;;;6.05;3.60;;;10.40;46.60;;;;;;20919407;28;20052;-58
2023/02/10 11:49:23;;;;;;;7.30;4.32;;;10.90;45.00;;;;;;20922194;28;20048;-61
2023/02/10 11:59:30;;;;;;;6.95;3.97;;;10.40;46.90;;;;;;20926546;28;20098;-58
2023/02/10 12:10:01;;;;;;;9.32;3.80;;;10.00;48.40;;;;;;20872548;28;20049;-59
2023/02/10 12:20:33;;;;;;;4.55;3.63;;;12.40;48.20;;;;;;20833914;28;20049;-60
2023/02/10 12:31:01;;;;;;;7.10;4.25;;;13.00;41.70;;;;;;20835583;28;20347;-60
2023/02/10 12:41:22;;;;;;;6.80;3.65;;;11.80;43.50;;;;;;20832894;28;20091;-59
2023/02/10 12:51:55;;;;;;;4.97;2.65;;;11.70;43.80;;;;;;20833684;28;20053;-62
2023/02/10 13:02:02;;;;;;;6.07;2.80;;;11.80;40.60;;;;;;20833390;28;20480;-63
2023/02/10 13:12:17;;;;;;;5.75;3.83;;;11.20;41.20;;;;;;20835663;28;20167;-61
2023/02/10 13:22:30;;;;;;;5.65;3.30;;;11.10;42.60;;;;;;20832220;28;20057;-64
2023/02/10 13:32:54;;;;;;;7.72;3.50;;;11.10;42.00;;;;;;20830615;28;20053;-64
2023/02/10 13:43:04;;;;;;;10.13;3.55;;;11.10;42.00;;;;;;20831168;28;20509;-63
2023/02/10 13:53:28;;;;;;;7.18;3.00;;;11.20;41.00;;;;;;20831038;28;20085;-69
2023/02/10 14:03:33;;;;;;;7.07;2.92;;;11.30;40.20;;;;;;20831168;28;20056;-65
2023/02/10 14:13:37;;;;;;;6.45;3.45;;;11.20;40.90;;;;;;20860262;28;20057;-65
2023/02/10 14:23:56;;;;;;;6.15;3.53;;;11.30;41.00;;;;;;20829328;28;20477;-65
2023/02/10 14:34:03;;;;;;;4.93;2.72;;;11.40;40.20;;;;;;20827904;28;20056;-63
2023/02/10 14:44:23;;;;;;;3.22;2.60;;;11.40;39.30;;;;;;20829087;28;20041;-62
2023/02/10 14:54:26;;;;;;;4.10;2.63;;;11.50;39.10;;;;;;20829002;28;20049;-63
2023/02/10 15:04:28;;;;;;;4.78;2.70;;;11.40;39.00;;;;;;20842178;28;20085;-66
2023/02/10 15:14:35;;;;;;;5.35;2.30;;;11.40;38.50;;;;;;20841760;28;20553;-64
2023/02/10 15:24:36;;;;;;;3.65;2.25;;;11.30;38.60;;;;;;20839716;28;20045;-63
2023/02/10 15:34:38;;;;;;;4.97;2.47;;;11.30;37.90;;;;;;20837904;28;20140;-62
2023/02/10 15:44:42;;;;;;;5.55;3.40;;;11.40;37.50;;;;;;20839567;28;20106;-69
2023/02/10 15:54:44;;;;;;;5.32;2.25;;;11.40;37.30;;;;;;20839863;28;20049;-63
2023/02/10 16:04:46;;;;;;;3.55;2.08;;;11.30;38.20;;;;;;20837760;28;20050;-62
2023/02/10 16:14:51;;;;;;;7.40;2.83;;;11.20;37.30;;;;;;20837517;28;20508;-61
2023/02/10 16:24:53;;;;;;;;;;;11.20;37.90;;;;;;20835218;28;20053;-62
2023/02/10 16:34:55;;;;;;;5.13;2.97;;;11.10;37.80;;;;;;20833736;28;19928;-62
2023/02/10 16:44:57;;;;;;;7.90;2.67;;;11.40;40.40;;;;;;20862378;28;20102;-66
2023/02/10 16:54:58;;;;;;;5.07;2.80;;;11.40;39.30;;;;;;20892226;28;20119;-61
2023/02/10 17:05:00;;;;;;;10.65;2.75;;;11.20;39.10;;;;;;20892844;28;20044;-61
2023/02/10 17:15:02;;;;;;;4.68;2.53;;;11.20;39.40;;;;;;20910320;28;20507;-63
2023/02/10 17:25:04;;;;;;;4.82;2.25;;;11.00;39.20;;;;;;20880689;28;20390;-64
2023/02/10 17:35:08;;;;;;;6.25;3.03;;;11.00;39.90;;;;;;20903756;28;20413;-61
2023/02/10 17:45:10;;;;;;;6.95;2.63;;;11.00;40.40;;;;;;20910227;28;20481;-70
2023/02/10 17:55:12;;;;;;;6.85;2.70;;;11.00;41.10;;;;;;20854825;28;20049;-60
2023/02/10 18:05:15;;;;;;;6.15;4.22;;;10.80;41.00;;;;;;20892702;28;20048;-63
2023/02/10 18:15:17;;;;;;;9.13;4.80;;;11.10;44.30;;;;;;20884544;28;20056;-68
2023/02/10 18:25:20;;;;;;;5.85;3.65;;;11.00;47.60;;;;;;20891566;28;20056;-60
2023/02/10 18:35:22;;;;;;;8.88;4.70;;;11.30;46.60;;;;;;20921984;28;20049;-68
2023/02/10 18:45:24;;;;;;;8.55;3.85;;;10.70;42.60;;;;;;20924674;28;20084;-64
2023/02/10 18:55:26;;;;;;;9.23;4.43;;;10.40;42.30;;;;;;20927771;28;20133;-60
2023/02/10 19:05:27;;;;;;;7.75;3.90;;;10.20;42.60;;;;;;20930678;28;20045;-60
2023/02/10 19:15:29;;;;;;;6.43;4.20;;;10.10;42.70;;;;;;20925518;28;20103;-62
2023/02/10 19:25:31;;;;;;;8.63;4.85;;;10.00;43.10;;;;;;20922766;28;20053;-61
2023/02/10 19:35:35;;;;;;;7.93;5.25;;;9.90;43.10;;;;;;20923923;28;20044;-61
2023/02/10 19:45:37;;;;;;;9.60;5.55;;;9.80;43.70;;;;;;20918512;28;20045;-65
2023/02/10 19:55:38;;;;;;;15.65;8.70;;;10.00;55.10;;;;;;20920767;28;20056;-64
2023/02/10 20:05:40;;;;;;;14.85;8.52;;;9.90;44.60;;;;;;20921271;28;20049;-65
2023/02/10 20:15:42;;;;;;;11.18;7.40;;;9.70;44.10;;;;;;20918117;28;20064;-62
2023/02/10 20:25:44;;;;;;;11.73;6.78;;;9.40;44.60;;;;;;20917218;28;20055;-64
2023/02/10 20:35:46;;;;;;;12.45;7.28;;;9.30;45.00;;;;;;20916763;28;20053;-65
2023/02/10 20:45:47;;;;;;;16.88;10.07;;;9.10;45.40;;;;;;20917106;28;20057;-65
2023/02/10 20:55:49;;;;;;;17.17;10.93;;;9.00;45.70;;;;;;20914161;28;20101;-63
2023/02/10 21:05:52;;;;;;;16.00;9.95;;;8.90;45.80;;;;;;20914930;28;20095;-64
2023/02/10 21:15:54;;;;;;;13.23;8.07;;;8.80;46.20;;;;;;20913945;28;20048;-63
2023/02/10 21:25:58;;;;;;;13.90;8.05;;;8.80;46.40;;;;;;20911966;28;20103;-64
2023/02/10 21:36:00;;;;;;;12.32;6.80;;;8.80;46.70;;;;;;20913235;28;20056;-63
2023/02/10 21:46:02;;;;;;;12.18;7.10;;;8.70;46.90;;;;;;20911958;28;20045;-61
2023/02/10 21:56:05;;;;;;;7.57;5.05;;;8.60;47.30;;;;;;20912886;28;20080;-62
2023/02/10 22:06:08;;;;;;;9.50;4.70;;;8.50;47.60;;;;;;20918903;28;20045;-61
2023/02/10 22:16:13;;;;;;;10.80;5.20;;;8.40;47.90;;;;;;20928944;28;20061;-64
2023/02/10 22:26:18;;;;;;;7.07;3.97;;;8.30;48.20;;;;;;20927483;28;20091;-64
2023/02/10 22:36:20;;;;;;;9.27;4.45;;;8.30;48.40;;;;;;20927247;28;20068;-64
2023/02/10 22:46:22;;;;;;;6.45;4.05;;;8.20;48.60;;;;;;20925837;28;20139;-61
2023/02/10 22:56:25;;;;;;;6.25;3.45;;;8.20;48.90;;;;;;20924542;28;20056;-62
2023/02/10 23:06:27;;;;;;;7.25;3.80;;;8.10;50.10;;;;;;20925017;28;20462;-61
2023/02/10 23:16:29;;;;;;;8.00;4.05;;;8.00;50.80;;;;;;20923346;28;20511;-64
2023/02/10 23:26:33;;;;;;;6.63;3.80;;;7.90;51.60;;;;;;20921938;28;20057;-63
2023/02/10 23:36:34;;;;;;;7.68;3.78;;;7.80;52.40;;;;;;20922975;28;20063;-65
2023/02/10 23:46:36;;;;;;;5.40;3.60;;;7.70;52.80;;;;;;20921332;28;20055;-64
2023/02/10 23:56:38;;;;;;;4.38;3.60;;;7.70;53.00;;;;;;20921539;28;20049;-62
